createdAt,value
2024-05-09T00:03:32.979Z,63.55
2024-05-09T00:06:08.514Z,61.24
2024-05-09T00:09:04.792Z,60.32
2024-05-09T00:11:33.248Z,60.12
2024-05-09T00:14:01.200Z,60.27
2024-05-09T00:16:32.357Z,60.85
2024-05-09T00:19:29.922Z,61.04
2024-05-09T00:22:01.520Z,60.64
2024-05-09T00:24:29.805Z,60.24
2024-05-09T00:27:22.807Z,60.71
2024-05-09T00:29:51.150Z,59.93
2024-05-09T00:32:24.750Z,59.37
2024-05-09T00:34:55.913Z,60.21
2024-05-09T00:37:27.538Z,60.38
2024-05-09T00:39:54.838Z,59.88
2024-05-09T00:42:22.995Z,59.05
2024-05-09T00:44:50.976Z,59.89
2024-05-09T00:47:29.049Z,60.14
2024-05-09T00:49:58.577Z,60.07
2024-05-09T00:52:28.029Z,58.34
2024-05-09T00:55:07.890Z,58.15
2024-05-09T00:57:46.075Z,59.13
2024-05-09T01:00:27.346Z,60.85
2024-05-09T01:03:14.523Z,60.21
2024-05-09T01:05:47.920Z,59.14
2024-05-09T01:08:16.271Z,59.41
2024-05-09T01:10:48.434Z,60.68
2024-05-09T01:13:17.717Z,63.08
2024-05-09T01:15:46.264Z,63.25
2024-05-09T01:18:14.664Z,62.00
2024-05-09T01:20:48.629Z,61.71
2024-05-09T01:23:19.505Z,61.75
2024-05-09T01:25:52.566Z,62.40
2024-05-09T01:28:20.822Z,61.57
2024-05-09T01:30:50.685Z,62.52
2024-05-09T01:33:23.280Z,61.72
2024-05-09T01:35:52.254Z,61.52
2024-05-09T01:38:23.868Z,60.80
2024-05-09T01:41:01.717Z,60.45
2024-05-09T01:43:30.492Z,60.66
2024-05-09T01:46:07.015Z,60.45
2024-05-09T01:48:35.401Z,61.06
2024-05-09T01:51:05.810Z,60.44
2024-05-09T01:53:59.736Z,61.00
2024-05-09T01:56:33.671Z,61.02
2024-05-09T01:59:04.822Z,61.53
2024-05-09T02:01:55.452Z,61.36
2024-05-09T02:04:24.999Z,62.11
2024-05-09T02:07:19.810Z,62.02
2024-05-09T02:09:59.276Z,61.86
2024-05-09T02:12:27.291Z,62.83
2024-05-09T02:15:00.643Z,62.05
2024-05-09T02:17:30.948Z,63.38
2024-05-09T02:20:06.379Z,62.42
2024-05-09T02:22:34.612Z,63.40
2024-05-09T02:25:02.386Z,62.92
2024-05-09T02:27:36.324Z,62.04
2024-05-09T02:30:18.258Z,62.26
2024-05-09T02:32:53.180Z,61.80
2024-05-09T02:35:28.368Z,62.19
2024-05-09T02:37:56.756Z,61.99
2024-05-09T02:40:33.238Z,61.67
2024-05-09T02:43:15.588Z,62.95
2024-05-09T02:45:47.034Z,61.42
2024-05-09T02:48:16.087Z,61.20
2024-05-09T02:50:45.122Z,61.84
2024-05-09T02:53:14.592Z,60.89
2024-05-09T02:55:47.376Z,60.03
2024-05-09T02:58:26.361Z,60.70
2024-05-09T03:01:03.580Z,61.82
2024-05-09T03:03:58.686Z,61.24
2024-05-09T03:06:26.249Z,62.41
2024-05-09T03:08:53.669Z,62.14
2024-05-09T03:11:24.998Z,61.54
2024-05-09T03:13:56.344Z,61.52
2024-05-09T03:16:43.540Z,61.26
2024-05-09T03:19:11.957Z,61.98
2024-05-09T03:21:44.180Z,62.18
2024-05-09T03:24:24.206Z,62.69
2024-05-09T03:26:51.977Z,63.85
2024-05-09T03:29:24.267Z,64.24
2024-05-09T03:31:52.059Z,64.89
2024-05-09T03:34:22.790Z,63.43
2024-05-09T03:36:50.538Z,64.19
2024-05-09T03:39:20.344Z,63.42
2024-05-09T03:41:48.681Z,65.00
2024-05-09T03:44:18.225Z,64.04
2024-05-09T03:46:46.904Z,63.24
2024-05-09T03:49:15.365Z,63.28
2024-05-09T03:51:54.229Z,62.79
2024-05-09T03:54:27.931Z,63.17
2024-05-09T03:57:06.346Z,64.22
2024-05-09T03:59:37.979Z,64.05
2024-05-09T04:02:09.230Z,64.40
2024-05-09T04:04:37.914Z,63.35
2024-05-09T04:07:12.002Z,63.58
2024-05-09T04:09:48.460Z,62.69
2024-05-09T04:12:44.443Z,65.33
2024-05-09T04:15:13.667Z,63.91
2024-05-09T04:18:10.105Z,63.64
2024-05-09T04:20:40.584Z,64.30
2024-05-09T04:23:15.048Z,63.65
2024-05-09T04:25:45.504Z,62.63
2024-05-09T04:28:21.510Z,63.63
2024-05-09T04:31:15.428Z,64.88
2024-05-09T04:33:51.147Z,64.69
2024-05-09T04:36:21.817Z,69.36
2024-05-09T04:38:55.863Z,65.07
2024-05-09T04:41:23.072Z,66.85
2024-05-09T04:43:51.069Z,66.50
2024-05-09T04:46:22.301Z,66.28
2024-05-09T04:49:23.291Z,68.55
2024-05-09T04:51:52.374Z,65.53
2024-05-09T04:54:33.825Z,67.51
2024-05-09T04:57:13.935Z,67.53
2024-05-09T04:59:41.756Z,66.11
2024-05-09T05:02:09.119Z,64.83
2024-05-09T05:05:12.622Z,65.49
2024-05-09T05:07:40.195Z,66.38
2024-05-09T05:10:15.038Z,66.74
2024-05-09T05:13:09.901Z,65.99
2024-05-09T05:15:39.856Z,65.95
2024-05-09T05:18:07.481Z,66.19
2024-05-09T05:21:26.313Z,67.20
2024-05-09T05:24:19.402Z,66.50
2024-05-09T05:26:46.868Z,65.72
2024-05-09T05:29:39.681Z,65.07
2024-05-09T05:32:07.432Z,65.33
2024-05-09T05:34:37.890Z,64.83
2024-05-09T05:37:05.341Z,63.80
2024-05-09T05:39:59.611Z,63.57
2024-05-09T05:42:32.499Z,63.69
2024-05-09T05:44:59.671Z,62.98
2024-05-09T05:47:31.823Z,62.11
2024-05-09T05:50:11.732Z,64.10
2024-05-09T05:53:10.747Z,64.03
2024-05-09T05:55:40.081Z,63.51
2024-05-09T05:58:12.944Z,62.20
2024-05-09T06:00:42.410Z,61.67
2024-05-09T06:03:36.521Z,62.35
2024-05-09T06:06:08.326Z,61.11
2024-05-09T06:08:41.126Z,61.58
2024-05-09T06:11:08.336Z,58.84
2024-05-09T06:13:35.324Z,61.81
2024-05-09T06:16:05.631Z,59.29
2024-05-09T06:18:59.507Z,58.45
2024-05-09T06:25:36.959Z,54.39
2024-05-09T06:28:06.091Z,55.13
2024-05-09T06:30:41.679Z,53.60
2024-05-09T06:33:13.084Z,51.87
2024-05-09T06:35:42.625Z,50.82
2024-05-09T06:38:10.273Z,52.03
2024-05-09T06:41:07.356Z,52.86
2024-05-09T06:43:35.287Z,52.64
2024-05-09T06:46:03.149Z,50.83
2024-05-09T06:48:34.531Z,49.96
2024-05-09T06:51:04.553Z,49.17
2024-05-09T06:53:57.669Z,49.27
2024-05-09T06:56:25.154Z,50.39
2024-05-09T06:58:54.689Z,51.09
2024-05-09T07:01:23.564Z,51.15
2024-05-09T07:03:58.517Z,47.33
2024-05-09T07:06:25.726Z,48.38
2024-05-09T07:08:53.266Z,49.56
2024-05-09T07:11:21.544Z,46.69
2024-05-09T07:13:49.771Z,46.05
2024-05-09T07:16:17.549Z,44.55
2024-05-09T07:19:16.379Z,41.57
2024-05-09T07:21:43.618Z,43.46
2024-05-09T07:24:38.296Z,41.27
2024-05-09T07:27:06.057Z,41.66
2024-05-09T07:29:58.714Z,42.14
2024-05-09T07:32:26.751Z,42.32
2024-05-09T07:34:54.057Z,42.47
2024-05-09T07:37:21.878Z,44.69
2024-05-09T07:39:49.032Z,45.29
2024-05-09T07:42:26.871Z,43.73
2024-05-09T07:45:14.541Z,42.90
2024-05-09T07:49:13.534Z,43.80
2024-05-09T07:53:37.077Z,41.57
2024-05-09T07:55:57.575Z,41.32
2024-05-09T07:58:51.444Z,38.40
2024-05-09T08:01:21.058Z,41.16
2024-05-09T08:03:50.146Z,38.21
2024-05-09T08:06:43.390Z,37.80
2024-05-09T08:09:16.733Z,35.93
2024-05-09T08:11:46.902Z,38.79
2024-05-09T08:14:14.165Z,38.65
2024-05-09T08:17:06.462Z,36.43
2024-05-09T08:19:35.184Z,35.47
2024-05-09T08:22:32.258Z,36.10
2024-05-09T08:25:00.029Z,32.58
2024-05-09T08:27:59.286Z,35.32
2024-05-09T08:30:37.308Z,35.89
2024-05-09T08:33:30.847Z,32.18
2024-05-09T08:35:58.408Z,32.75
2024-05-09T08:38:25.734Z,33.38
2024-05-09T08:40:53.134Z,31.82
2024-05-09T08:43:55.312Z,32.41
2024-05-09T08:46:23.285Z,32.40
2024-05-09T08:48:55.575Z,31.35
2024-05-09T08:51:27.410Z,30.71
2024-05-09T08:53:54.734Z,30.69
2024-05-09T08:56:28.002Z,30.09
2024-05-09T08:59:01.228Z,31.49
2024-05-09T09:01:31.673Z,31.59
2024-05-09T09:04:10.542Z,30.08
2024-05-09T09:06:39.629Z,29.27
2024-05-09T09:09:33.283Z,27.97
2024-05-09T09:12:00.789Z,28.48
2024-05-09T09:14:54.931Z,28.24
2024-05-09T09:17:22.972Z,29.26
2024-05-09T09:20:00.622Z,29.07
2024-05-09T09:22:28.326Z,28.76
2024-05-09T09:24:56.367Z,28.93
2024-05-09T09:27:25.707Z,30.40
2024-05-09T09:29:53.366Z,30.00
2024-05-09T09:32:21.380Z,30.74
2024-05-09T09:34:49.129Z,29.37
2024-05-09T09:37:20.848Z,27.85
2024-05-09T09:39:49.552Z,28.22
2024-05-09T09:42:18.855Z,27.70
2024-05-09T09:44:57.671Z,27.15
2024-05-09T09:47:32.576Z,26.00
2024-05-09T09:50:14.425Z,27.51
2024-05-09T09:52:45.222Z,26.81
2024-05-09T09:55:13.267Z,27.25
2024-05-09T09:57:48.664Z,28.04
2024-05-09T10:00:27.425Z,28.51
2024-05-09T10:03:01.566Z,27.94
2024-05-09T10:05:33.868Z,27.43
2024-05-09T10:08:10.298Z,26.86
2024-05-09T10:10:38.551Z,26.83
2024-05-09T10:13:45.541Z,25.67
2024-05-09T10:16:23.964Z,25.87
2024-05-09T10:18:52.708Z,25.34
2024-05-09T10:21:20.875Z,24.45
2024-05-09T10:24:20.088Z,23.75
2024-05-09T10:26:59.744Z,25.30
2024-05-09T10:30:09.110Z,26.12
2024-05-09T10:32:42.228Z,24.38
2024-05-09T10:35:13.240Z,26.98
2024-05-09T10:37:41.327Z,26.98
2024-05-09T10:40:23.380Z,25.51
2024-05-09T10:42:58.251Z,26.20
2024-05-09T10:45:50.384Z,24.76
2024-05-09T10:48:18.174Z,25.29
2024-05-09T10:51:10.987Z,25.04
2024-05-09T10:53:46.933Z,24.92
2024-05-09T10:56:14.963Z,23.76
2024-05-09T10:58:42.774Z,23.12
2024-05-09T11:01:36.156Z,24.02
2024-05-09T11:04:05.568Z,23.47
2024-05-09T11:06:36.213Z,24.15
2024-05-09T11:09:06.727Z,25.41
2024-05-09T11:12:25.463Z,25.00
2024-05-09T11:14:53.966Z,25.33
2024-05-09T11:17:21.416Z,24.09
2024-05-09T11:19:51.100Z,22.55
2024-05-09T11:22:19.697Z,23.57
2024-05-09T11:24:47.207Z,22.06
2024-05-09T11:27:14.798Z,24.21
2024-05-09T11:29:44.934Z,22.43
2024-05-09T11:32:37.819Z,22.40
2024-05-09T11:35:06.112Z,22.77
2024-05-09T11:37:35.400Z,23.69
2024-05-09T11:40:13.921Z,22.81
2024-05-09T11:42:53.650Z,25.03
2024-05-09T11:45:22.770Z,23.72
2024-05-09T11:47:50.802Z,23.09
2024-05-09T11:50:26.886Z,22.67
2024-05-09T11:53:15.333Z,23.13
2024-05-09T11:55:42.518Z,23.48
2024-05-09T11:58:10.147Z,23.34
2024-05-09T12:00:38.151Z,21.87
2024-05-09T12:03:14.472Z,21.20
2024-05-09T12:06:22.583Z,24.53
2024-05-09T12:09:40.784Z,21.56
2024-05-09T12:12:09.648Z,21.58
2024-05-09T12:14:43.436Z,20.32
2024-05-09T12:17:10.798Z,21.21
2024-05-09T12:20:07.103Z,19.97
2024-05-09T12:22:36.493Z,23.24
2024-05-09T12:25:13.864Z,23.68
2024-05-09T12:28:12.561Z,23.78
2024-05-09T12:30:47.596Z,21.41
2024-05-09T12:33:41.216Z,21.95
2024-05-09T12:36:31.346Z,21.88
2024-05-09T12:39:08.156Z,21.72
2024-05-09T12:42:07.614Z,22.23
2024-05-09T12:44:34.886Z,19.56
2024-05-09T12:47:02.598Z,21.44
2024-05-09T12:49:56.188Z,19.95
2024-05-09T12:52:31.095Z,21.78
2024-05-09T12:55:02.615Z,22.22
2024-05-09T12:57:34.025Z,23.77
2024-05-09T13:00:05.849Z,23.86
2024-05-09T13:02:39.321Z,23.99
2024-05-09T13:05:33.572Z,22.58
2024-05-09T13:08:04.712Z,21.84
2024-05-09T13:11:04.814Z,20.80
2024-05-09T13:14:05.325Z,21.39
2024-05-09T13:16:41.666Z,20.55
2024-05-09T13:19:14.431Z,21.58
2024-05-09T13:21:44.631Z,20.53
2024-05-09T13:24:37.306Z,21.61
2024-05-09T13:27:10.540Z,21.58
2024-05-09T13:29:41.077Z,22.36
2024-05-09T13:32:17.542Z,22.19
2024-05-09T13:34:46.744Z,22.65
2024-05-09T13:38:05.066Z,22.38
2024-05-09T13:40:36.689Z,22.80
2024-05-09T13:43:29.684Z,23.53
2024-05-09T13:46:00.670Z,23.13
2024-05-09T13:48:32.776Z,21.73
2024-05-09T13:51:03.620Z,21.75
2024-05-09T13:53:32.815Z,23.11
2024-05-09T13:56:18.411Z,20.31
2024-05-09T13:58:46.707Z,20.19
2024-05-09T14:01:41.444Z,21.90
2024-05-09T14:04:15.067Z,21.15
2024-05-09T14:09:34.834Z,22.16
2024-05-09T14:12:54.340Z,20.72
2024-05-09T14:15:49.045Z,21.50
2024-05-09T14:18:18.298Z,21.63
2024-05-09T14:21:16.101Z,20.79
2024-05-09T14:23:50.364Z,21.49
2024-05-09T14:26:18.365Z,21.40
2024-05-09T14:28:46.750Z,22.12
2024-05-09T14:31:17.961Z,22.02
2024-05-09T14:33:54.564Z,21.32
2024-05-09T14:36:22.108Z,21.35
2024-05-09T14:38:49.513Z,21.95
2024-05-09T14:41:19.108Z,21.97
2024-05-09T14:44:12.746Z,22.91
2024-05-09T14:46:41.151Z,23.80
2024-05-09T14:49:44.352Z,22.25
2024-05-09T14:52:12.847Z,20.60
2024-05-09T14:54:42.032Z,22.68
2024-05-09T14:57:09.548Z,23.20
2024-05-09T15:00:09.127Z,22.72
2024-05-09T15:02:46.608Z,22.63
2024-05-09T15:05:15.541Z,22.81
2024-05-09T15:07:46.676Z,20.89
2024-05-09T15:10:23.793Z,21.51
2024-05-09T15:13:25.019Z,21.51
2024-05-09T15:16:21.910Z,19.58
2024-05-09T15:18:51.220Z,20.57
2024-05-09T15:21:21.352Z,20.48
2024-05-09T15:23:49.277Z,21.17
2024-05-09T15:26:18.678Z,21.09
2024-05-09T15:28:47.382Z,19.43
2024-05-09T15:31:14.963Z,21.77
2024-05-09T15:33:42.987Z,20.42
2024-05-09T15:36:18.046Z,20.13
2024-05-09T15:38:47.213Z,21.21
2024-05-09T15:41:20.766Z,20.73
2024-05-09T15:43:52.539Z,21.55
2024-05-09T15:46:21.597Z,20.38
2024-05-09T15:48:58.724Z,19.38
2024-05-09T15:51:27.438Z,19.34
2024-05-09T15:53:55.272Z,20.27
2024-05-09T15:56:22.976Z,22.45
2024-05-09T15:58:50.503Z,23.07
2024-05-09T16:01:19.518Z,22.48
2024-05-09T16:03:56.746Z,21.91
2024-05-09T16:06:31.206Z,22.30
2024-05-09T16:09:00.910Z,23.04
2024-05-09T16:11:30.936Z,22.12
2024-05-09T16:14:03.616Z,21.80
2024-05-09T16:16:33.771Z,21.11
2024-05-09T16:19:04.218Z,23.12
2024-05-09T16:21:35.176Z,24.38
2024-05-09T16:24:05.558Z,24.78
2024-05-09T16:26:33.939Z,23.00
2024-05-09T16:29:05.789Z,22.17
2024-05-09T16:31:40.596Z,23.00
2024-05-09T16:34:12.518Z,22.97
2024-05-09T16:36:40.833Z,22.91
2024-05-09T16:39:11.898Z,23.52
2024-05-09T16:41:39.826Z,23.01
2024-05-09T16:44:07.559Z,21.94
2024-05-09T16:46:39.815Z,21.89
2024-05-09T16:49:10.086Z,22.40
2024-05-09T16:51:38.259Z,22.48
2024-05-09T16:54:13.509Z,22.09
2024-05-09T16:56:53.367Z,22.62
2024-05-09T16:59:26.292Z,22.01
2024-05-09T17:02:12.099Z,22.76
2024-05-09T17:04:45.434Z,23.59
2024-05-09T17:07:17.723Z,24.91
2024-05-09T17:09:55.006Z,25.21
2024-05-09T17:12:24.744Z,24.80
2024-05-09T17:14:52.656Z,24.42
2024-05-09T17:17:21.754Z,24.69
2024-05-09T17:19:50.034Z,25.87
2024-05-09T17:22:20.846Z,26.08
2024-05-09T17:24:49.438Z,26.05
2024-05-09T17:27:22.693Z,26.85
2024-05-09T17:29:53.230Z,26.81
2024-05-09T17:32:23.342Z,26.32
2024-05-09T17:34:51.500Z,27.87
2024-05-09T17:37:22.964Z,28.03
2024-05-09T17:39:50.192Z,28.88
2024-05-09T17:42:21.363Z,28.77
2024-05-09T17:44:48.727Z,29.80
2024-05-09T17:47:26.170Z,29.23
2024-05-09T17:50:38.145Z,29.26
2024-05-09T17:53:07.025Z,28.45
2024-05-09T17:55:35.782Z,28.95
2024-05-09T17:58:04.883Z,28.95
2024-05-09T18:00:39.207Z,28.62
2024-05-09T18:03:12.647Z,29.08
2024-05-09T18:05:43.165Z,29.80
2024-05-09T18:08:18.594Z,30.92
2024-05-09T18:10:46.369Z,30.70
2024-05-09T18:13:15.817Z,30.69
2024-05-09T18:15:52.651Z,30.76
2024-05-09T18:18:27.544Z,31.55
2024-05-09T18:20:56.151Z,31.38
2024-05-09T18:23:24.684Z,31.08
2024-05-09T18:25:54.915Z,31.26
2024-05-09T18:28:48.595Z,35.03
2024-05-09T18:31:15.832Z,35.64
2024-05-09T18:33:44.210Z,37.06
2024-05-09T18:36:12.691Z,36.51
2024-05-09T18:39:29.959Z,37.94
2024-05-09T18:41:58.013Z,38.97
2024-05-09T18:44:42.153Z,38.83
2024-05-09T18:47:10.564Z,39.10
2024-05-09T18:49:38.409Z,39.02
2024-05-09T18:52:06.633Z,38.84
2024-05-09T18:55:09.647Z,39.00
2024-05-09T18:57:37.443Z,39.17
2024-05-09T19:00:30.689Z,39.48
2024-05-09T19:03:06.388Z,39.46
2024-05-09T19:05:36.646Z,39.08
2024-05-09T19:08:04.599Z,38.99
2024-05-09T19:10:36.174Z,39.98
2024-05-09T19:13:11.886Z,39.83
2024-05-09T19:15:59.884Z,39.78
2024-05-09T19:18:28.049Z,40.43
2024-05-09T19:20:55.524Z,40.96
2024-05-09T19:27:08.529Z,41.58
2024-05-09T19:29:39.203Z,42.18
2024-05-09T19:32:07.271Z,42.66
2024-05-09T19:34:34.743Z,42.83
2024-05-09T19:37:37.884Z,42.82
2024-05-09T19:40:10.476Z,42.58
2024-05-09T19:42:41.935Z,43.51
2024-05-09T19:45:09.309Z,45.04
2024-05-09T19:48:08.690Z,44.30
2024-05-09T19:50:41.818Z,46.06
2024-05-09T19:53:12.696Z,45.35
2024-05-09T19:55:41.461Z,46.12
2024-05-09T19:58:42.473Z,46.98
2024-05-09T20:01:10.748Z,47.90
2024-05-09T20:04:05.217Z,47.72
2024-05-09T20:06:33.606Z,47.58
2024-05-09T20:09:26.256Z,47.45
2024-05-09T20:11:53.997Z,48.23
2024-05-09T20:14:22.599Z,47.38
2024-05-09T20:16:50.337Z,47.39
2024-05-09T20:19:18.106Z,47.64
2024-05-09T20:22:04.651Z,49.11
2024-05-09T20:24:47.021Z,48.63
2024-05-09T20:27:14.589Z,48.77
2024-05-09T20:29:41.716Z,48.41
2024-05-09T20:32:08.940Z,48.11
2024-05-09T20:34:36.746Z,48.08
2024-05-09T20:37:12.901Z,48.63
2024-05-09T20:40:28.249Z,50.01
2024-05-09T20:43:01.838Z,51.10
2024-05-09T20:45:30.170Z,51.49
2024-05-09T20:48:28.499Z,50.96
2024-05-09T20:50:56.218Z,52.20
2024-05-09T20:53:23.395Z,52.85
2024-05-09T20:55:56.506Z,51.69
2024-05-09T20:58:23.774Z,52.44
2024-05-09T21:01:17.242Z,51.24
2024-05-09T21:03:45.774Z,51.19
2024-05-09T21:06:14.048Z,51.34
2024-05-09T21:09:12.962Z,51.30
2024-05-09T21:11:41.807Z,52.77
2024-05-09T21:14:12.593Z,51.99
2024-05-09T21:16:39.892Z,52.16
2024-05-09T21:19:28.230Z,52.33
2024-05-09T21:21:55.392Z,52.12
2024-05-09T21:24:26.523Z,51.91
2024-05-09T21:26:54.384Z,53.05
2024-05-09T21:29:22.397Z,53.30
2024-05-09T21:31:51.135Z,53.32
2024-05-09T21:34:21.700Z,53.96
2024-05-09T21:37:14.507Z,53.83
2024-05-09T21:39:42.060Z,52.58
2024-05-09T21:42:09.665Z,53.29
2024-05-09T21:44:37.286Z,53.27
2024-05-09T21:47:09.211Z,52.33
2024-05-09T21:49:38.157Z,53.52
2024-05-09T21:52:11.014Z,54.30
2024-05-09T21:54:39.089Z,54.82
2024-05-09T21:57:10.384Z,54.26
2024-05-09T21:59:40.578Z,54.80
2024-05-09T22:02:08.748Z,54.26
2024-05-09T22:05:03.638Z,54.93
2024-05-09T22:07:31.256Z,55.61
2024-05-09T22:10:31.082Z,55.00
2024-05-09T22:13:02.598Z,54.98
2024-05-09T22:15:30.187Z,53.44
2024-05-09T22:17:57.726Z,53.97
2024-05-09T22:20:33.636Z,54.58
2024-05-09T22:23:05.520Z,54.89
2024-05-09T22:25:33.045Z,54.20
2024-05-09T22:28:02.817Z,54.67
2024-05-09T22:30:36.831Z,54.92
2024-05-09T22:33:09.766Z,54.97
2024-05-09T22:36:10.526Z,53.79
2024-05-09T22:38:37.738Z,54.40
2024-05-09T22:41:11.446Z,54.21
2024-05-09T22:43:39.686Z,55.10
2024-05-09T22:46:11.473Z,55.21
2024-05-09T22:48:38.963Z,55.13
2024-05-09T22:51:06.789Z,55.36
2024-05-09T22:53:33.927Z,55.96
2024-05-09T22:56:02.593Z,55.94
2024-05-09T22:58:42.265Z,56.50
2024-05-09T23:01:15.735Z,56.90
2024-05-09T23:03:43.997Z,57.34
2024-05-09T23:06:11.469Z,57.64
2024-05-09T23:08:40.014Z,56.44
2024-05-09T23:11:08.860Z,55.63
2024-05-09T23:13:36.735Z,56.59
2024-05-09T23:16:05.734Z,56.48
2024-05-09T23:18:36.031Z,55.71
2024-05-09T23:21:05.589Z,55.77
2024-05-09T23:24:24.234Z,56.56
2024-05-09T23:26:51.604Z,56.91
2024-05-09T23:29:47.388Z,56.25
2024-05-09T23:32:15.136Z,56.42
2024-05-09T23:35:10.183Z,55.35
2024-05-09T23:37:38.180Z,54.90
2024-05-09T23:42:43.032Z,54.32
2024-05-09T23:45:36.811Z,55.24
2024-05-09T23:48:06.498Z,55.83
2024-05-09T23:51:06.993Z,55.88
2024-05-09T23:53:35.990Z,57.19
2024-05-09T23:56:08.546Z,57.32
2024-05-09T23:58:55.469Z,55.87
